Falcon — WBE7134 — position and weather

sailwx.info

Track history (hours):
 
Tides and Currents Weather Stations Pressure Air Temp Water Temp Dewpoint Dewpoint Depression Visibility Wind Speed Wind Dir Waves Ship Positions

Falcon

Owner: Allied Transportation Company, NORFOLK, VA. More information available from US FCC via Universal Licensing System and Coast Guard Vessel Documentation Center.

Last reported at 2016-Jul-24 03:08 UTC. Time now 2016-Jul-26 04:34 UTC.
Position N 40°55' W 073°55'.

Length 37 m; draft 8 m.

Type: Tug. MMSI: 366976720.

Date/timePositionNaut miles runAvg speedWind from/ knotsBaromVisibWave heightAir tempDewpointWater temp
2016-Jul-24 03:08N 40°55' W 073°55'5 8.7
2016-Jul-24 02:33N 40°50' W 073°58'8 8.3
2016-Jul-24 01:33N 40°42' W 074°02'8 7.7
2016-Jul-24 00:33N 40°34' W 074°02'8 7.8
2016-Jul-23 23:34N 40°29' W 073°55'26 6.2
2016-Jul-23 19:27N 40°04' W 073°57'6 6.9
2016-Jul-23 18:33N 39°57' W 073°59'7 6.7
2016-Jul-23 17:34N 39°51' W 073°60'7 6.8
2016-Jul-23 16:33N 39°44' W 074°01'7 6.9
2016-Jul-23 15:33N 39°38' W 074°04'7 6.8
2016-Jul-23 14:32N 39°31' W 074°08'7 7.0
2016-Jul-23 13:33N 39°25' W 074°12'9 7.0
2016-Jul-23 12:12N 39°18' W 074°19'5 7.0
2016-Jul-23 11:34N 39°14' W 074°22'7 7.1
2016-Jul-23 10:33N 39°08' W 074°27'7 7.1
2016-Jul-23 09:33N 39°02' W 074°32'8 7.1
2016-Jul-23 08:26N 38°55' W 074°37'6 6.9
2016-Jul-23 07:33N 38°50' W 074°42'7 7.5
2016-Jul-23 06:33N 38°48' W 074°51'13 6.6
2016-Jul-23 04:34N 38°55' W 075°05'6 5.7
2016-Jul-23 03:33N 38°60' W 075°09'2 1.5
2016-Jul-23 02:34N 39°01' W 075°10'6 5.6
2016-Jul-23 01:33N 39°07' W 075°12'6 5.7
2016-Jul-23 00:33N 39°11' W 075°17'7 7.2
2016-Jul-22 23:33N 39°17' W 075°22'9 9.0
2016-Jul-22 22:33N 39°24' W 075°30'8 8.1
2016-Jul-22 21:33N 39°31' W 075°33'7 7.1
2016-Jul-22 20:33N 39°39' W 075°34'5 4.9
2016-Jul-22 19:33N 39°43' W 075°31'0 0.4
2016-Jul-22 18:33N 39°43' W 075°32'1 0.6
2016-Jul-22 17:33N 39°43' W 075°31'7 7.2
2016-Jul-22 16:33N 39°36' W 075°34'1211.9
2016-Jul-22 15:34N 39°25' W 075°30'1312.7
2016-Jul-22 14:33N 39°15' W 075°20'1212.2
2016-Jul-22 13:33N 39°05' W 075°11'1412.6
2016-Jul-22 12:25N 38°52' W 075°04'18 9.6
2016-Jul-22 10:33N 38°52' W 074°41'1110.6
2016-Jul-22 09:29N 39°01' W 074°32'1010.7
2016-Jul-22 08:33N 39°09' W 074°25'1010.5
2016-Jul-22 07:33N 39°18' W 074°18'2210.9
2016-Jul-22 05:33N 39°37' W 074°05'1110.6
2016-Jul-22 04:33N 39°47' W 074°00'1111.0
2016-Jul-22 03:33N 39°58' W 073°58'1110.8
2016-Jul-22 02:33N 40°09' W 073°56'1111.0
2016-Jul-22 01:33N 40°20' W 073°55'9 9.3
2016-Jul-22 00:33N 40°29' W 073°55'9 8.7
2016-Jul-21 23:33N 40°36' W 074°03'6 6.1
2016-Jul-21 22:32N 40°39' W 074°10'4 4.5
2016-Jul-21 21:34N 40°39' W 074°04'8 7.3
2016-Jul-21 20:31N 40°46' W 074°00'0 0.0
2016-Jul-21 19:31N 40°46' W 074°00'6 6.3
2016-Jul-21 18:33N 40°40' W 074°03'4 3.9
2016-Jul-21 17:32N 40°39' W 074°07'0 0.0
2016-Jul-21 16:32N 40°39' W 074°07'0 0.0
2016-Jul-21 15:33N 40°39' W 074°07'0 0.0
2016-Jul-21 14:33N 40°39' W 074°07'0 0.0
2016-Jul-21 13:33N 40°39' W 074°07'0 0.0
2016-Jul-21 12:33N 40°39' W 074°07'0 0.0
2016-Jul-21 11:33N 40°39' W 074°07'0 0.0
2016-Jul-21 10:33N 40°39' W 074°07'0 0.0
2016-Jul-21 09:33N 40°39' W 074°07'0 0.0
2016-Jul-21 08:33N 40°39' W 074°07'0 0.0
2016-Jul-21 07:33N 40°39' W 074°07'0 0.0
2016-Jul-21 05:33N 40°39' W 074°07'0 0.0
2016-Jul-21 04:33N 40°39' W 074°07'0 0.0
2016-Jul-21 03:33N 40°39' W 074°07'0 0.0
2016-Jul-21 02:33N 40°39' W 074°07'0 0.0
2016-Jul-21 01:33N 40°39' W 074°07'0 0.0
2016-Jul-21 00:33N 40°39' W 074°07'1 1.5
2016-Jul-20 23:34N 40°40' W 074°09'2 1.7
2016-Jul-20 22:32N 40°41' W 074°10'0 0.0
2016-Jul-20 21:32N 40°41' W 074°10'0 0.0
2016-Jul-20 20:32N 40°41' W 074°10'0 0.0
2016-Jul-20 19:32N 40°41' W 074°10'0 0.0
2016-Jul-20 18:32N 40°41' W 074°10'0 0.1
2016-Jul-20 17:33N 40°41' W 074°09'3 2.9
2016-Jul-20 16:33N 40°39' W 074°09'1 1.0
2016-Jul-20 15:31N 40°39' W 074°07'0 0.0
2016-Jul-20 14:31N 40°39' W 074°07'0 0.0
2016-Jul-20 13:33N 40°39' W 074°07'0 0.0
2016-Jul-20 12:33N 40°39' W 074°07'0 0.0
2016-Jul-20 11:33N 40°39' W 074°07'0 0.0
2016-Jul-20 10:33N 40°39' W 074°07'0 0.0
2016-Jul-20 09:33N 40°39' W 074°07'0 0.0
2016-Jul-20 08:33N 40°39' W 074°07'0 0.0
2016-Jul-20 07:33N 40°39' W 074°07'0 0.0
2016-Jul-20 06:33N 40°39' W 074°07'0 0.0
2016-Jul-20 05:33N 40°39' W 074°07'0 0.0
2016-Jul-20 04:33N 40°39' W 074°07'0 0.0
2016-Jul-20 03:32N 40°39' W 074°07'0 0.0
2016-Jul-20 02:32N 40°39' W 074°07'0 0.0
2016-Jul-20 01:29N 40°39' W 074°07'0 0.0
2016-Jul-20 00:32N 40°39' W 074°07'0 0.0
2016-Jul-19 23:32N 40°39' W 074°07'0 0.0
2016-Jul-19 22:32N 40°39' W 074°07'0 0.0
2016-Jul-19 21:32N 40°39' W 074°07'4 2.2
2016-Jul-19 19:33N 40°36' W 074°12'4 4.1
2016-Jul-19 18:28N 40°39' W 074°07'0 0.0
2016-Jul-19 17:31N 40°38' W 074°07'0 0.0
2016-Jul-19 16:20N 40°39' W 074°07'0 0.0
2016-Jul-19 15:31N 40°38' W 074°07'0 0.0
2016-Jul-19 14:22N 40°38' W 074°07'0 0.0
2016-Jul-19 13:19N 40°38' W 074°07'0 0.0
2016-Jul-19 12:19N 40°38' W 074°07'0 0.0
2016-Jul-19 11:31N 40°38' W 074°07'0 0.0
2016-Jul-19 10:31N 40°38' W 074°07'0 0.0
2016-Jul-19 09:17N 40°39' W 074°07'0 0.0
2016-Jul-19 08:08N 40°38' W 074°07'0 0.0
2016-Jul-19 03:28N 40°38' W 074°07'3 3.5
2016-Jul-19 02:33N 40°38' W 074°12'2 0.4
2016-Jul-18 22:33N 40°37' W 074°12'4 4.1
2016-Jul-18 21:33N 40°39' W 074°07'0 0.0
2016-Jul-18 20:24N 40°39' W 074°07'0 0.0
2016-Jul-18 19:33N 40°39' W 074°07'0 0.0
2016-Jul-18 18:33N 40°39' W 074°07'0 0.0
2016-Jul-18 17:24N 40°39' W 074°07'0 0.0
2016-Jul-18 16:32N 40°39' W 074°07'0 0.0
2016-Jul-18 15:32N 40°39' W 074°07'0 0.0
2016-Jul-18 14:32N 40°39' W 074°07'0 0.0
2016-Jul-18 13:32N 40°39' W 074°07'0 0.0
2016-Jul-18 12:32N 40°39' W 074°07'0 0.0
2016-Jul-18 11:32N 40°39' W 074°07'0 0.0
2016-Jul-18 10:32N 40°39' W 074°07'0 0.0
2016-Jul-18 09:32N 40°39' W 074°07'0 0.0
2016-Jul-18 08:32N 40°39' W 074°07'0 0.0
2016-Jul-18 07:32N 40°39' W 074°07'0 0.0
2016-Jul-18 06:32N 40°39' W 074°07'0 0.0
2016-Jul-18 05:32N 40°39' W 074°07'0 0.0
2016-Jul-18 04:32N 40°39' W 074°07'0 0.0
2016-Jul-18 03:32N 40°39' W 074°07'0 0.0
2016-Jul-18 02:32N 40°39' W 074°07'0 0.0
2016-Jul-18 01:32N 40°39' W 074°07'0 0.0
2016-Jul-18 00:32N 40°39' W 074°07'0 0.1
2016-Jul-17 23:32N 40°39' W 074°07'0 0.1
2016-Jul-17 22:32N 40°39' W 074°07'0 0.0
2016-Jul-17 08:10N 40°39' W 074°07'0 0.0
2016-Jul-17 07:29N 40°39' W 074°07'0 0.0
2016-Jul-17 06:32N 40°39' W 074°07'0 0.0
2016-Jul-17 04:31N 40°39' W 074°07'0 0.0
2016-Jul-17 03:32N 40°39' W 074°07'0 0.0
2016-Jul-17 02:32N 40°39' W 074°07'0 0.0
2016-Jul-17 01:31N 40°39' W 074°07'0 0.0
2016-Jul-17 00:28N 40°39' W 074°07'0 0.0
2016-Jul-16 23:31N 40°39' W 074°07'0 0.0
2016-Jul-16 22:32N 40°39' W 074°07'0 0.0
2016-Jul-16 21:31N 40°39' W 074°07'0 0.0
2016-Jul-16 20:28N 40°39' W 074°07'0 0.0
2016-Jul-16 19:22N 40°39' W 074°07'0 0.0
2016-Jul-16 18:31N 40°39' W 074°07'0 0.0
2016-Jul-16 17:32N 40°39' W 074°07'0 0.0
2016-Jul-16 16:34N 40°39' W 074°07'0 0.0
2016-Jul-16 15:33N 40°39' W 074°07'0 0.0
2016-Jul-16 14:25N 40°39' W 074°07'0 0.0
2016-Jul-16 13:33N 40°39' W 074°07'0 0.0
2016-Jul-16 12:33N 40°39' W 074°07'0 0.0
2016-Jul-16 11:27N 40°39' W 074°07'0 0.0
2016-Jul-16 10:33N 40°39' W 074°07'0 0.0
2016-Jul-16 09:33N 40°39' W 074°07'0 0.0
2016-Jul-16 08:33N 40°39' W 074°07'0 0.0
2016-Jul-16 07:33N 40°39' W 074°07'0 0.0
2016-Jul-16 06:33N 40°39' W 074°07'0 0.0
2016-Jul-16 04:33N 40°39' W 074°07'1 1.0
2016-Jul-16 03:33N 40°39' W 074°06'1 0.9
2016-Jul-16 02:28N 40°39' W 074°07'0 0.0
2016-Jul-16 01:28N 40°39' W 074°07'0 0.0
2016-Jul-16 00:31N 40°39' W 074°07'0 0.0
2016-Jul-15 23:31N 40°39' W 074°07'0 0.0
2016-Jul-15 22:28N 40°39' W 074°07'0 0.0
2016-Jul-15 21:31N 40°39' W 074°07'0 0.0
2016-Jul-15 20:22N 40°39' W 074°07'0 0.0
2016-Jul-15 19:28N 40°39' W 074°07'0 0.0
2016-Jul-15 18:31N 40°39' W 074°07'0 0.0
2016-Jul-15 17:31N 40°39' W 074°07'0 0.0
2016-Jul-15 16:31N 40°39' W 074°07'0 0.0
2016-Jul-15 15:28N 40°39' W 074°07'0 0.0
2016-Jul-15 14:31N 40°39' W 074°07'0 0.0
2016-Jul-15 13:26N 40°39' W 074°07'0 0.0
2016-Jul-15 12:29N 40°39' W 074°07'0 0.0
2016-Jul-15 11:26N 40°39' W 074°07'0 0.0
2016-Jul-15 10:32N 40°39' W 074°07'0 0.0
2016-Jul-15 09:32N 40°39' W 074°07'0 0.0
2016-Jul-15 08:26N 40°39' W 074°07'0 0.0
2016-Jul-15 07:32N 40°39' W 074°07'0 0.0
2016-Jul-15 06:32N 40°39' W 074°07'0 0.0
2016-Jul-15 05:29N 40°39' W 074°07'0 0.0
2016-Jul-15 04:23N 40°39' W 074°07'0 0.0
2016-Jul-15 03:32N 40°38' W 074°07'0 0.0
2016-Jul-15 02:34N 40°39' W 074°07'0 0.0
2016-Jul-15 01:26N 40°39' W 074°07'0 0.0
2016-Jul-15 00:20N 40°39' W 074°07'0 0.0
2016-Jul-14 23:32N 40°39' W 074°07'0 0.0
2016-Jul-14 18:22N 40°39' W 074°07'0 0.0
2016-Jul-14 17:27N 40°39' W 074°07'0 0.0
2016-Jul-14 15:12N 40°39' W 074°07'1 1.6
2016-Jul-14 14:31N 40°39' W 074°06'1 1.3
2016-Jul-14 13:33N 40°39' W 074°04'1 1.2
2016-Jul-14 12:29N 40°39' W 074°06'0 0.0
2016-Jul-14 11:32N 40°39' W 074°06'0 0.0
2016-Jul-14 10:32N 40°39' W 074°06'0 0.0
2016-Jul-14 09:32N 40°39' W 074°06'0 0.0
2016-Jul-14 08:32N 40°39' W 074°06'0 0.0
2016-Jul-14 07:32N 40°39' W 074°06'0 0.0
2016-Jul-14 06:32N 40°39' W 074°06'0 0.0
2016-Jul-14 05:32N 40°39' W 074°06'0 0.0
2016-Jul-14 04:32N 40°39' W 074°06'0 0.0
2016-Jul-14 03:32N 40°39' W 074°06'  
Track history (hours):
 
Tides and Currents Weather Stations Pressure Air Temp Water Temp Dewpoint Dewpoint Depression Visibility Wind Speed Wind Dir Waves Ship Positions

Falcon

Owner: Allied Transportation Company, NORFOLK, VA. More information available from US FCC via Universal Licensing System and Coast Guard Vessel Documentation Center.

Last reported at 2016-Jul-24 03:08 UTC. Time now 2016-Jul-26 04:34 UTC.
Position N 40°55' W 073°55'.

Length 37 m; draft 8 m.

Type: Tug. MMSI: 366976720.

Date/timePositionNaut miles runAvg speedWind from/ knotsBaromVisibWave heightAir tempDewpointWater temp
2016-Jul-24 03:08N 40°55' W 073°55'5 8.7
2016-Jul-24 02:33N 40°50' W 073°58'8 8.3
2016-Jul-24 01:33N 40°42' W 074°02'8 7.7
2016-Jul-24 00:33N 40°34' W 074°02'8 7.8
2016-Jul-23 23:34N 40°29' W 073°55'26 6.2
2016-Jul-23 19:27N 40°04' W 073°57'6 6.9
2016-Jul-23 18:33N 39°57' W 073°59'7 6.7
2016-Jul-23 17:34N 39°51' W 073°60'7 6.8
2016-Jul-23 16:33N 39°44' W 074°01'7 6.9
2016-Jul-23 15:33N 39°38' W 074°04'7 6.8
2016-Jul-23 14:32N 39°31' W 074°08'7 7.0
2016-Jul-23 13:33N 39°25' W 074°12'9 7.0
2016-Jul-23 12:12N 39°18' W 074°19'5 7.0
2016-Jul-23 11:34N 39°14' W 074°22'7 7.1
2016-Jul-23 10:33N 39°08' W 074°27'7 7.1
2016-Jul-23 09:33N 39°02' W 074°32'8 7.1
2016-Jul-23 08:26N 38°55' W 074°37'6 6.9
2016-Jul-23 07:33N 38°50' W 074°42'7 7.5
2016-Jul-23 06:33N 38°48' W 074°51'13 6.6
2016-Jul-23 04:34N 38°55' W 075°05'6 5.7
2016-Jul-23 03:33N 38°60' W 075°09'2 1.5
2016-Jul-23 02:34N 39°01' W 075°10'6 5.6
2016-Jul-23 01:33N 39°07' W 075°12'6 5.7
2016-Jul-23 00:33N 39°11' W 075°17'7 7.2
2016-Jul-22 23:33N 39°17' W 075°22'9 9.0
2016-Jul-22 22:33N 39°24' W 075°30'8 8.1
2016-Jul-22 21:33N 39°31' W 075°33'7 7.1
2016-Jul-22 20:33N 39°39' W 075°34'5 4.9
2016-Jul-22 19:33N 39°43' W 075°31'0 0.4
2016-Jul-22 18:33N 39°43' W 075°32'1 0.6
2016-Jul-22 17:33N 39°43' W 075°31'7 7.2
2016-Jul-22 16:33N 39°36' W 075°34'1211.9
2016-Jul-22 15:34N 39°25' W 075°30'1312.7
2016-Jul-22 14:33N 39°15' W 075°20'1212.2
2016-Jul-22 13:33N 39°05' W 075°11'1412.6
2016-Jul-22 12:25N 38°52' W 075°04'18 9.6
2016-Jul-22 10:33N 38°52' W 074°41'1110.6
2016-Jul-22 09:29N 39°01' W 074°32'1010.7
2016-Jul-22 08:33N 39°09' W 074°25'1010.5
2016-Jul-22 07:33N 39°18' W 074°18'2210.9
2016-Jul-22 05:33N 39°37' W 074°05'1110.6
2016-Jul-22 04:33N 39°47' W 074°00'1111.0
2016-Jul-22 03:33N 39°58' W 073°58'1110.8
2016-Jul-22 02:33N 40°09' W 073°56'1111.0
2016-Jul-22 01:33N 40°20' W 073°55'9 9.3
2016-Jul-22 00:33N 40°29' W 073°55'9 8.7
2016-Jul-21 23:33N 40°36' W 074°03'6 6.1
2016-Jul-21 22:32N 40°39' W 074°10'4 4.5
2016-Jul-21 21:34N 40°39' W 074°04'8 7.3
2016-Jul-21 20:31N 40°46' W 074°00'0 0.0
2016-Jul-21 19:31N 40°46' W 074°00'6 6.3
2016-Jul-21 18:33N 40°40' W 074°03'4 3.9
2016-Jul-21 17:32N 40°39' W 074°07'0 0.0
2016-Jul-21 16:32N 40°39' W 074°07'0 0.0
2016-Jul-21 15:33N 40°39' W 074°07'0 0.0
2016-Jul-21 14:33N 40°39' W 074°07'0 0.0
2016-Jul-21 13:33N 40°39' W 074°07'0 0.0
2016-Jul-21 12:33N 40°39' W 074°07'0 0.0
2016-Jul-21 11:33N 40°39' W 074°07'0 0.0
2016-Jul-21 10:33N 40°39' W 074°07'0 0.0
2016-Jul-21 09:33N 40°39' W 074°07'0 0.0
2016-Jul-21 08:33N 40°39' W 074°07'0 0.0
2016-Jul-21 07:33N 40°39' W 074°07'0 0.0
2016-Jul-21 05:33N 40°39' W 074°07'0 0.0
2016-Jul-21 04:33N 40°39' W 074°07'0 0.0
2016-Jul-21 03:33N 40°39' W 074°07'0 0.0
2016-Jul-21 02:33N 40°39' W 074°07'0 0.0
2016-Jul-21 01:33N 40°39' W 074°07'0 0.0
2016-Jul-21 00:33N 40°39' W 074°07'1 1.5
2016-Jul-20 23:34N 40°40' W 074°09'2 1.7
2016-Jul-20 22:32N 40°41' W 074°10'0 0.0
2016-Jul-20 21:32N 40°41' W 074°10'0 0.0
2016-Jul-20 20:32N 40°41' W 074°10'0 0.0
2016-Jul-20 19:32N 40°41' W 074°10'0 0.0
2016-Jul-20 18:32N 40°41' W 074°10'0 0.1
2016-Jul-20 17:33N 40°41' W 074°09'3 2.9
2016-Jul-20 16:33N 40°39' W 074°09'1 1.0
2016-Jul-20 15:31N 40°39' W 074°07'0 0.0
2016-Jul-20 14:31N 40°39' W 074°07'0 0.0
2016-Jul-20 13:33N 40°39' W 074°07'0 0.0
2016-Jul-20 12:33N 40°39' W 074°07'0 0.0
2016-Jul-20 11:33N 40°39' W 074°07'0 0.0
2016-Jul-20 10:33N 40°39' W 074°07'0 0.0
2016-Jul-20 09:33N 40°39' W 074°07'0 0.0
2016-Jul-20 08:33N 40°39' W 074°07'0 0.0
2016-Jul-20 07:33N 40°39' W 074°07'0 0.0
2016-Jul-20 06:33N 40°39' W 074°07'0 0.0
2016-Jul-20 05:33N 40°39' W 074°07'0 0.0
2016-Jul-20 04:33N 40°39' W 074°07'0 0.0
2016-Jul-20 03:32N 40°39' W 074°07'0 0.0
2016-Jul-20 02:32N 40°39' W 074°07'0 0.0
2016-Jul-20 01:29N 40°39' W 074°07'0 0.0
2016-Jul-20 00:32N 40°39' W 074°07'0 0.0
2016-Jul-19 23:32N 40°39' W 074°07'0 0.0
2016-Jul-19 22:32N 40°39' W 074°07'0 0.0
2016-Jul-19 21:32N 40°39' W 074°07'4 2.2
2016-Jul-19 19:33N 40°36' W 074°12'4 4.1
2016-Jul-19 18:28N 40°39' W 074°07'0 0.0
2016-Jul-19 17:31N 40°38' W 074°07'0 0.0
2016-Jul-19 16:20N 40°39' W 074°07'0 0.0
2016-Jul-19 15:31N 40°38' W 074°07'0 0.0
2016-Jul-19 14:22N 40°38' W 074°07'0 0.0
2016-Jul-19 13:19N 40°38' W 074°07'0 0.0
2016-Jul-19 12:19N 40°38' W 074°07'0 0.0
2016-Jul-19 11:31N 40°38' W 074°07'0 0.0
2016-Jul-19 10:31N 40°38' W 074°07'0 0.0
2016-Jul-19 09:17N 40°39' W 074°07'0 0.0
2016-Jul-19 08:08N 40°38' W 074°07'0 0.0
2016-Jul-19 03:28N 40°38' W 074°07'3 3.5
2016-Jul-19 02:33N 40°38' W 074°12'2 0.4
2016-Jul-18 22:33N 40°37' W 074°12'4 4.1
2016-Jul-18 21:33N 40°39' W 074°07'0 0.0
2016-Jul-18 20:24N 40°39' W 074°07'0 0.0
2016-Jul-18 19:33N 40°39' W 074°07'0 0.0
2016-Jul-18 18:33N 40°39' W 074°07'0 0.0
2016-Jul-18 17:24N 40°39' W 074°07'0 0.0
2016-Jul-18 16:32N 40°39' W 074°07'0 0.0
2016-Jul-18 15:32N 40°39' W 074°07'0 0.0
2016-Jul-18 14:32N 40°39' W 074°07'0 0.0
2016-Jul-18 13:32N 40°39' W 074°07'0 0.0
2016-Jul-18 12:32N 40°39' W 074°07'0 0.0
2016-Jul-18 11:32N 40°39' W 074°07'0 0.0
2016-Jul-18 10:32N 40°39' W 074°07'0 0.0
2016-Jul-18 09:32N 40°39' W 074°07'0 0.0
2016-Jul-18 08:32N 40°39' W 074°07'0 0.0
2016-Jul-18 07:32N 40°39' W 074°07'0 0.0
2016-Jul-18 06:32N 40°39' W 074°07'0 0.0
2016-Jul-18 05:32N 40°39' W 074°07'0 0.0
2016-Jul-18 04:32N 40°39' W 074°07'0 0.0
2016-Jul-18 03:32N 40°39' W 074°07'0 0.0
2016-Jul-18 02:32N 40°39' W 074°07'0 0.0
2016-Jul-18 01:32N 40°39' W 074°07'0 0.0
2016-Jul-18 00:32N 40°39' W 074°07'0 0.1
2016-Jul-17 23:32N 40°39' W 074°07'0 0.1
2016-Jul-17 22:32N 40°39' W 074°07'0 0.0
2016-Jul-17 08:10N 40°39' W 074°07'0 0.0
2016-Jul-17 07:29N 40°39' W 074°07'0 0.0
2016-Jul-17 06:32N 40°39' W 074°07'0 0.0
2016-Jul-17 04:31N 40°39' W 074°07'0 0.0
2016-Jul-17 03:32N 40°39' W 074°07'0 0.0
2016-Jul-17 02:32N 40°39' W 074°07'0 0.0
2016-Jul-17 01:31N 40°39' W 074°07'0 0.0
2016-Jul-17 00:28N 40°39' W 074°07'0 0.0
2016-Jul-16 23:31N 40°39' W 074°07'0 0.0
2016-Jul-16 22:32N 40°39' W 074°07'0 0.0
2016-Jul-16 21:31N 40°39' W 074°07'0 0.0
2016-Jul-16 20:28N 40°39' W 074°07'0 0.0
2016-Jul-16 19:22N 40°39' W 074°07'0 0.0
2016-Jul-16 18:31N 40°39' W 074°07'0 0.0
2016-Jul-16 17:32N 40°39' W 074°07'0 0.0
2016-Jul-16 16:34N 40°39' W 074°07'0 0.0
2016-Jul-16 15:33N 40°39' W 074°07'0 0.0
2016-Jul-16 14:25N 40°39' W 074°07'0 0.0
2016-Jul-16 13:33N 40°39' W 074°07'0 0.0
2016-Jul-16 12:33N 40°39' W 074°07'0 0.0
2016-Jul-16 11:27N 40°39' W 074°07'0 0.0
2016-Jul-16 10:33N 40°39' W 074°07'0 0.0
2016-Jul-16 09:33N 40°39' W 074°07'0 0.0
2016-Jul-16 08:33N 40°39' W 074°07'0 0.0
2016-Jul-16 07:33N 40°39' W 074°07'0 0.0
2016-Jul-16 06:33N 40°39' W 074°07'0 0.0
2016-Jul-16 04:33N 40°39' W 074°07'1 1.0
2016-Jul-16 03:33N 40°39' W 074°06'1 0.9
2016-Jul-16 02:28N 40°39' W 074°07'0 0.0
2016-Jul-16 01:28N 40°39' W 074°07'0 0.0
2016-Jul-16 00:31N 40°39' W 074°07'0 0.0
2016-Jul-15 23:31N 40°39' W 074°07'0 0.0
2016-Jul-15 22:28N 40°39' W 074°07'0 0.0
2016-Jul-15 21:31N 40°39' W 074°07'0 0.0
2016-Jul-15 20:22N 40°39' W 074°07'0 0.0
2016-Jul-15 19:28N 40°39' W 074°07'0 0.0
2016-Jul-15 18:31N 40°39' W 074°07'0 0.0
2016-Jul-15 17:31N 40°39' W 074°07'0 0.0
2016-Jul-15 16:31N 40°39' W 074°07'0 0.0
2016-Jul-15 15:28N 40°39' W 074°07'0 0.0
2016-Jul-15 14:31N 40°39' W 074°07'0 0.0
2016-Jul-15 13:26N 40°39' W 074°07'0 0.0
2016-Jul-15 12:29N 40°39' W 074°07'0 0.0
2016-Jul-15 11:26N 40°39' W 074°07'0 0.0
2016-Jul-15 10:32N 40°39' W 074°07'0 0.0
2016-Jul-15 09:32N 40°39' W 074°07'0 0.0
2016-Jul-15 08:26N 40°39' W 074°07'0 0.0
2016-Jul-15 07:32N 40°39' W 074°07'0 0.0
2016-Jul-15 06:32N 40°39' W 074°07'0 0.0
2016-Jul-15 05:29N 40°39' W 074°07'0 0.0
2016-Jul-15 04:23N 40°39' W 074°07'0 0.0
2016-Jul-15 03:32N 40°38' W 074°07'0 0.0
2016-Jul-15 02:34N 40°39' W 074°07'0 0.0
2016-Jul-15 01:26N 40°39' W 074°07'0 0.0
2016-Jul-15 00:20N 40°39' W 074°07'0 0.0
2016-Jul-14 23:32N 40°39' W 074°07'0 0.0
2016-Jul-14 18:22N 40°39' W 074°07'0 0.0
2016-Jul-14 17:27N 40°39' W 074°07'0 0.0
2016-Jul-14 15:12N 40°39' W 074°07'1 1.6
2016-Jul-14 14:31N 40°39' W 074°06'1 1.3
2016-Jul-14 13:33N 40°39' W 074°04'1 1.2
2016-Jul-14 12:29N 40°39' W 074°06'0 0.0
2016-Jul-14 11:32N 40°39' W 074°06'0 0.0
2016-Jul-14 10:32N 40°39' W 074°06'0 0.0
2016-Jul-14 09:32N 40°39' W 074°06'0 0.0
2016-Jul-14 08:32N 40°39' W 074°06'0 0.0
2016-Jul-14 07:32N 40°39' W 074°06'0 0.0
2016-Jul-14 06:32N 40°39' W 074°06'0 0.0
2016-Jul-14 05:32N 40°39' W 074°06'0 0.0
2016-Jul-14 04:32N 40°39' W 074°06'0 0.0
2016-Jul-14 03:32N 40°39' W 074°06'  

Dump ship's entire track history